createdAt,value
2023-04-01T00:01:35.202Z,5.40
2023-04-01T00:04:03.286Z,7.27
2023-04-01T00:06:30.754Z,4.13
2023-04-01T00:08:58.075Z,3.80
2023-04-01T00:11:25.506Z,4.23
2023-04-01T00:13:52.673Z,4.33
2023-04-01T00:16:21.828Z,6.63
2023-04-01T00:18:50.516Z,2.20
2023-04-01T00:21:18.169Z,3.73
2023-04-01T00:23:45.357Z,3.93
2023-04-01T00:26:13.239Z,1.40
2023-04-01T00:28:41.186Z,3.90
2023-04-01T00:31:09.438Z,3.80
2023-04-01T00:33:36.849Z,2.10
2023-04-01T00:36:07.985Z,4.80
2023-04-01T00:38:35.631Z,2.20
2023-04-01T00:41:02.948Z,1.93
2023-04-01T00:43:30.172Z,4.43
2023-04-01T00:45:57.706Z,4.97
2023-04-01T00:48:26.512Z,3.00
2023-04-01T00:50:56.099Z,4.93
2023-04-01T00:53:23.674Z,6.43
2023-04-01T00:55:53.817Z,5.33
2023-04-01T00:58:22.371Z,6.00
2023-04-01T01:00:51.657Z,7.00
2023-04-01T01:03:18.957Z,8.13
2023-04-01T01:05:55.444Z,5.63
2023-04-01T01:08:33.777Z,4.00
2023-04-01T01:11:01.355Z,5.40
2023-04-01T01:13:36.027Z,4.43
2023-04-01T01:16:06.723Z,5.47
2023-04-01T01:18:42.852Z,4.13
2023-04-01T01:21:25.401Z,3.93
2023-04-01T03:36:48.705Z,3.00
2023-04-01T03:39:25.389Z,3.37
2023-04-01T03:41:57.700Z,3.53
2023-04-01T03:44:29.070Z,2.23
2023-04-01T03:47:01.248Z,2.50
2023-04-01T03:49:37.925Z,3.07
2023-04-01T03:52:15.790Z,2.17
2023-04-01T03:54:47.564Z,2.47
2023-04-01T03:57:21.909Z,3.17
2023-04-01T03:59:53.290Z,1.60
2023-04-01T04:02:24.831Z,3.70
2023-04-01T04:04:56.756Z,2.33
2023-04-01T04:07:29.570Z,2.00
2023-04-01T04:10:01.166Z,3.67
2023-04-01T04:12:32.836Z,1.43
2023-04-01T04:15:08.002Z,2.17
2023-04-01T04:17:38.935Z,3.87
2023-04-01T04:20:11.073Z,1.63
2023-04-01T04:22:38.630Z,2.30
2023-04-01T04:25:06.177Z,1.83
2023-04-01T04:27:35.766Z,1.70
2023-04-01T04:30:10.717Z,1.50
2023-04-01T04:32:38.377Z,3.60
2023-04-01T04:35:07.398Z,2.00
2023-04-01T04:37:34.600Z,2.03
2023-04-01T04:40:06.378Z,3.57
2023-04-01T04:42:33.524Z,4.20
2023-04-01T04:45:00.812Z,2.97
2023-04-01T04:47:28.036Z,2.70
2023-04-01T04:49:55.334Z,4.33
2023-04-01T04:52:22.486Z,4.10
2023-04-01T04:54:49.663Z,3.87
2023-04-01T04:57:16.798Z,4.67
2023-04-01T04:59:44.006Z,4.70
2023-04-01T05:02:11.260Z,4.03
2023-04-01T05:04:38.474Z,7.40
2023-04-01T05:07:05.652Z,2.37
2023-04-01T05:09:33.116Z,2.83
2023-04-01T05:12:00.416Z,2.17
2023-04-01T05:14:27.517Z,2.87
2023-04-01T05:16:55.540Z,2.83
2023-04-01T05:19:22.962Z,2.90
2023-04-01T05:21:50.170Z,3.13
2023-04-01T05:24:17.495Z,5.10
2023-04-01T05:26:44.632Z,6.73
2023-04-01T05:29:12.453Z,3.90
2023-04-01T05:31:39.629Z,6.33
2023-04-01T05:34:06.794Z,4.53
2023-04-01T05:36:36.082Z,7.00
2023-04-01T05:39:07.252Z,6.43
2023-04-01T05:41:36.394Z,6.47
2023-04-01T05:44:03.540Z,7.17
2023-04-01T05:46:30.797Z,11.27
2023-04-01T05:48:57.994Z,5.63
2023-04-01T05:51:25.422Z,4.93
2023-04-01T05:53:52.654Z,6.20
2023-04-01T05:56:19.856Z,9.13
2023-04-01T05:58:48.779Z,6.57
2023-04-01T06:01:16.634Z,6.03
2023-04-01T06:03:44.031Z,7.03
2023-04-01T06:06:20.464Z,7.87
2023-04-01T06:08:47.659Z,7.53
2023-04-01T06:11:26.447Z,10.03
2023-04-01T06:14:01.726Z,7.23
2023-04-01T06:16:31.707Z,9.20
2023-04-01T06:19:12.177Z,7.57
2023-04-01T06:21:52.488Z,7.00
2023-04-01T06:24:31.829Z,11.57
2023-04-01T06:26:58.872Z,9.47
2023-04-01T06:29:29.175Z,8.00
2023-04-01T06:32:08.009Z,5.53
2023-04-01T06:34:42.166Z,5.40
2023-04-01T06:37:15.432Z,5.77
2023-04-01T06:39:42.593Z,7.23
2023-04-01T06:42:12.509Z,9.40
2023-04-01T06:45:01.000Z,7.47
2023-04-01T06:47:30.481Z,5.93
2023-04-01T06:50:03.173Z,6.73
2023-04-01T06:52:37.852Z,7.27
2023-04-01T06:55:26.871Z,7.77
2023-04-01T06:57:56.506Z,6.03
2023-04-01T07:00:42.304Z,6.50
2023-04-01T07:03:37.411Z,5.80
2023-04-01T07:06:10.309Z,4.10
2023-04-01T07:08:39.627Z,6.10
2023-04-01T07:11:07.972Z,7.13
2023-04-01T07:13:41.925Z,5.90
2023-04-01T07:16:09.090Z,4.40
2023-04-01T07:18:39.258Z,6.23
2023-04-01T07:21:06.624Z,4.57
2023-04-01T07:23:52.781Z,7.63
2023-04-01T07:26:24.028Z,5.80
2023-04-01T07:28:57.699Z,6.50
2023-04-01T07:31:31.575Z,5.53
2023-04-01T07:34:02.510Z,3.90
2023-04-01T07:36:32.723Z,5.03
2023-04-01T07:38:59.930Z,5.33
2023-04-01T07:41:39.588Z,5.47
2023-04-01T07:44:28.196Z,5.33
2023-04-01T07:47:07.718Z,7.03
2023-04-01T07:49:53.366Z,8.03
2023-04-01T07:52:40.868Z,5.50
2023-04-01T07:55:08.054Z,11.53
2023-04-01T07:57:55.872Z,7.30
2023-04-01T08:00:23.032Z,6.57
2023-04-01T08:02:59.233Z,6.10
2023-04-01T08:05:31.749Z,7.30
2023-04-01T08:08:17.781Z,8.80
2023-04-01T08:10:59.525Z,7.70
2023-04-01T08:13:39.755Z,10.57
2023-04-01T08:16:19.094Z,6.50
2023-04-01T08:19:03.502Z,11.77
2023-04-01T08:21:34.493Z,7.33
2023-04-01T08:24:07.315Z,6.57
2023-04-01T08:26:43.722Z,6.57
2023-04-01T08:29:16.085Z,8.33
2023-04-01T08:31:43.398Z,5.73
2023-04-01T08:34:16.869Z,8.90
2023-04-01T08:36:47.534Z,5.17
2023-04-01T08:39:18.306Z,9.77
2023-04-01T08:42:04.648Z,6.90
2023-04-01T08:45:07.349Z,7.03
2023-04-01T08:47:46.253Z,7.77
2023-04-01T08:50:22.559Z,6.43
2023-04-01T08:52:56.716Z,6.57
2023-04-01T08:55:37.963Z,7.83
2023-04-01T08:58:07.549Z,6.73
2023-04-01T09:00:49.727Z,8.43
2023-04-01T09:03:38.772Z,7.00
2023-04-01T09:06:31.941Z,10.70
2023-04-01T09:08:59.027Z,7.83
2023-04-01T09:11:35.501Z,8.40
2023-04-01T09:14:08.940Z,8.27
2023-04-01T09:16:48.300Z,10.57
2023-04-01T09:19:18.250Z,11.13
2023-04-01T09:21:45.802Z,14.57
2023-04-01T09:24:22.688Z,12.33
2023-04-01T09:26:50.311Z,11.97
2023-04-01T09:29:26.315Z,12.50
2023-04-01T09:32:06.902Z,14.67
2023-04-01T09:34:54.283Z,19.53
2023-04-01T09:37:33.764Z,22.20
2023-04-01T09:40:38.426Z,20.60
2023-04-01T09:43:24.422Z,16.93
2023-04-01T09:45:58.505Z,19.97
2023-04-01T09:48:40.972Z,25.10
2023-04-01T09:51:23.167Z,30.47
2023-04-01T09:53:56.499Z,33.07
2023-04-01T09:56:49.051Z,18.47
2023-04-01T09:59:18.974Z,16.87
2023-04-01T10:01:56.689Z,21.37
2023-04-01T10:04:26.839Z,22.03
2023-04-01T10:07:12.502Z,27.03
2023-04-01T10:09:39.596Z,19.87
2023-04-01T10:12:21.953Z,28.40
2023-04-01T10:14:58.242Z,32.10
2023-04-01T10:17:37.611Z,29.10
2023-04-01T10:20:14.249Z,36.40
2023-04-01T10:23:00.245Z,19.60
2023-04-01T10:25:36.535Z,21.30
2023-04-01T10:28:04.833Z,25.53
2023-04-01T10:30:35.623Z,30.90
2023-04-01T10:33:05.990Z,19.87
2023-04-01T10:35:53.495Z,32.17
2023-04-01T10:38:20.647Z,20.93
2023-04-01T10:41:06.623Z,21.03
2023-04-01T10:43:33.845Z,24.20
2023-04-01T10:46:06.826Z,22.20
2023-04-01T10:48:51.847Z,23.23
2023-04-01T10:51:28.396Z,17.63
2023-04-01T10:54:19.584Z,19.47
2023-04-01T10:57:07.160Z,16.80
2023-04-01T10:59:37.903Z,18.93
2023-04-01T11:02:25.379Z,19.90
2023-04-01T11:05:08.413Z,22.03
2023-04-01T11:07:41.876Z,20.53
2023-04-01T11:10:12.169Z,25.87
2023-04-01T11:12:58.618Z,14.50
2023-04-01T11:15:44.509Z,17.50
2023-04-01T11:18:39.474Z,22.60
2023-04-01T11:21:15.580Z,24.37
2023-04-01T11:24:04.575Z,26.73
2023-04-01T11:26:33.740Z,21.77
2023-04-01T11:32:49.212Z,18.37
2023-04-01T11:36:06.332Z,21.80
2023-04-01T11:39:38.596Z,20.73
2023-04-01T11:42:14.348Z,19.73
2023-04-01T11:44:51.430Z,23.00
2023-04-01T11:47:58.855Z,17.93
2023-04-01T11:50:51.729Z,29.30
2023-04-01T11:53:24.318Z,24.70
2023-04-01T11:56:10.315Z,25.10
2023-04-01T11:58:37.488Z,28.60
2023-04-01T12:01:10.743Z,18.83
2023-04-01T12:03:48.930Z,23.97
2023-04-01T12:06:31.325Z,23.53
2023-04-01T12:09:16.817Z,18.27
2023-04-01T12:11:44.042Z,19.47
2023-04-01T12:14:26.255Z,22.33
2023-04-01T12:16:57.544Z,19.03
2023-04-01T12:19:48.146Z,19.27
2023-04-01T12:22:15.293Z,15.90
2023-04-01T12:24:50.148Z,14.30
2023-04-01T12:27:40.984Z,14.70
2023-04-01T12:30:08.318Z,12.90
2023-04-01T12:32:50.938Z,13.47
2023-04-01T12:35:23.568Z,13.87
2023-04-01T12:38:06.477Z,15.73
2023-04-01T12:40:56.371Z,13.53
2023-04-01T12:43:33.164Z,11.47
2023-04-01T12:46:12.580Z,12.00
2023-04-01T12:48:49.436Z,13.67
2023-04-01T12:51:16.843Z,16.50
2023-04-01T12:53:57.367Z,19.30
2023-04-01T12:56:44.209Z,15.63
2023-04-01T12:59:27.712Z,22.57
2023-04-01T13:01:54.888Z,23.93
2023-04-01T13:04:22.173Z,17.90
2023-04-01T13:07:18.872Z,14.47
2023-04-01T13:10:06.106Z,14.63
2023-04-01T13:12:46.817Z,16.70
2023-04-01T13:15:40.532Z,21.47
2023-04-01T13:18:07.883Z,19.33
2023-04-01T13:20:53.771Z,17.13
2023-04-01T13:23:26.628Z,16.90
2023-04-01T13:26:06.905Z,15.07
2023-04-01T13:28:45.890Z,11.30
2023-04-01T13:31:27.657Z,15.00
2023-04-01T13:34:13.457Z,16.13
2023-04-01T13:37:05.793Z,14.10
2023-04-01T13:39:51.571Z,17.70
2023-04-01T13:42:25.880Z,17.60
2023-04-01T13:44:56.873Z,16.97
2023-04-01T13:47:24.036Z,14.07
2023-04-01T13:49:57.301Z,17.93
2023-04-01T13:52:36.413Z,19.67
2023-04-01T13:55:22.329Z,29.73
2023-04-01T13:57:49.490Z,32.13
2023-04-01T14:00:19.699Z,19.97
2023-04-01T14:02:49.985Z,20.93
2023-04-01T14:05:32.433Z,23.77
2023-04-01T14:08:30.671Z,18.10
2023-04-01T14:11:03.068Z,16.53
2023-04-01T14:13:39.313Z,15.07
2023-04-01T14:16:12.922Z,14.30
2023-04-01T14:19:00.400Z,16.17
2023-04-01T14:21:40.876Z,15.70
2023-04-01T14:24:11.348Z,17.73
2023-04-01T14:26:53.712Z,16.60
2023-04-01T14:29:27.436Z,15.33
2023-04-01T14:32:06.504Z,14.03
2023-04-01T14:34:46.204Z,12.93
2023-04-01T14:37:32.239Z,14.03
2023-04-01T14:40:05.641Z,12.90
2023-04-01T14:42:38.951Z,13.60
2023-04-01T14:45:21.442Z,16.17
2023-04-01T14:48:07.670Z,15.10
2023-04-01T14:50:55.082Z,12.40
2023-04-01T14:53:25.544Z,11.30
2023-04-01T14:55:56.750Z,13.80
2023-04-01T14:58:28.835Z,10.60
2023-04-01T15:00:59.079Z,10.00
2023-04-01T15:03:29.328Z,9.77
2023-04-01T15:06:26.759Z,11.93
2023-04-01T15:09:00.125Z,12.00
2023-04-01T15:11:30.476Z,16.53
2023-04-01T15:14:08.523Z,11.37
2023-04-01T15:16:47.507Z,12.63
2023-04-01T15:19:20.502Z,12.07
2023-04-01T15:22:02.783Z,9.83
2023-04-01T15:24:42.296Z,12.43
2023-04-01T15:27:28.437Z,10.33
2023-04-01T15:30:05.951Z,11.23
2023-04-01T15:32:42.181Z,11.03
2023-04-01T15:35:28.068Z,12.93
2023-04-01T15:38:12.125Z,10.90
2023-04-01T15:40:48.612Z,11.27
2023-04-01T15:43:32.553Z,11.13
2023-04-01T15:46:17.989Z,14.37
2023-04-01T15:48:57.734Z,9.50
2023-04-01T15:51:31.011Z,10.63
2023-04-01T15:54:05.476Z,8.83
2023-04-01T15:56:45.380Z,10.13
2023-04-01T15:59:29.323Z,10.47
2023-04-01T16:02:01.858Z,11.03
2023-04-01T16:04:29.150Z,9.80
2023-04-01T16:06:56.602Z,10.00
2023-04-01T16:10:04.669Z,13.00
2023-04-01T16:12:48.339Z,11.03
2023-04-01T16:15:35.986Z,10.07
2023-04-01T16:18:23.412Z,10.27
2023-04-01T16:20:59.353Z,9.23
2023-04-01T16:23:38.692Z,8.80
2023-04-01T16:26:21.253Z,9.40
2023-04-01T16:29:00.852Z,9.67
2023-04-01T16:31:36.062Z,10.80
2023-04-01T16:34:06.851Z,9.37
2023-04-01T16:36:47.434Z,8.77
2023-04-01T16:39:17.703Z,9.97
2023-04-01T16:42:03.682Z,14.93
2023-04-01T16:44:31.150Z,12.83
2023-04-01T16:47:00.974Z,12.33
2023-04-01T16:49:38.458Z,14.77
2023-04-01T16:52:15.426Z,14.53
2023-04-01T16:54:54.840Z,12.40
2023-04-01T16:57:29.166Z,14.17
2023-04-01T17:00:03.085Z,12.80
2023-04-01T17:02:33.393Z,15.23
2023-04-01T17:05:02.945Z,14.87
2023-04-01T17:07:30.084Z,14.43
2023-04-01T17:10:03.062Z,15.83
2023-04-01T17:12:30.309Z,19.03
2023-04-01T17:15:00.325Z,17.97
2023-04-01T17:17:49.959Z,14.30
2023-04-01T17:20:26.220Z,15.53
2023-04-01T17:23:12.084Z,16.93
2023-04-01T17:25:54.503Z,14.93
2023-04-01T17:28:29.126Z,15.70
2023-04-01T17:31:05.676Z,17.37
2023-04-01T17:33:38.725Z,13.90
2023-04-01T17:36:08.999Z,15.20
2023-04-01T17:38:39.160Z,15.40
2023-04-01T17:41:25.020Z,16.70
2023-04-01T17:43:55.143Z,15.30
2023-04-01T17:46:25.089Z,14.47
2023-04-01T17:49:11.188Z,16.03
2023-04-01T17:51:56.363Z,17.93
2023-04-01T17:54:28.748Z,19.80
2023-04-01T17:57:28.347Z,20.17
2023-04-01T18:00:13.937Z,18.30
2023-04-01T18:02:45.556Z,16.33
2023-04-01T18:05:12.785Z,16.40
2023-04-01T18:08:00.132Z,21.53
2023-04-01T18:10:28.551Z,16.73
2023-04-01T18:13:13.917Z,20.27
2023-04-01T18:15:59.835Z,18.97
2023-04-01T18:18:46.059Z,17.30
2023-04-01T18:21:19.277Z,19.00
2023-04-01T18:23:59.161Z,20.03
2023-04-01T18:26:38.020Z,19.13
2023-04-01T18:29:23.590Z,17.80
2023-04-01T18:31:53.940Z,15.67
2023-04-01T18:34:33.236Z,20.33
2023-04-01T18:37:14.048Z,22.87
2023-04-01T18:39:43.460Z,20.53
2023-04-01T18:42:21.911Z,19.63
2023-04-01T18:44:54.121Z,22.70
2023-04-01T18:47:37.130Z,27.90
2023-04-01T18:50:04.573Z,25.77
2023-04-01T18:52:39.464Z,26.17
2023-04-01T18:55:08.598Z,24.63
2023-04-01T18:57:48.213Z,20.90
2023-04-01T19:00:27.592Z,19.23
2023-04-01T19:03:02.996Z,20.93
2023-04-01T19:05:39.052Z,31.77
2023-04-01T19:08:20.385Z,31.33
2023-04-01T19:10:57.396Z,33.20
2023-04-01T19:13:30.850Z,31.33
2023-04-01T19:16:01.484Z,28.07
2023-04-01T19:18:51.857Z,23.33
2023-04-01T19:21:31.464Z,25.13
2023-04-01T19:24:07.951Z,16.87
2023-04-01T19:26:38.187Z,17.13
2023-04-01T19:29:08.549Z,15.17
2023-04-01T19:31:41.399Z,13.10
2023-04-01T19:34:28.740Z,10.93
2023-04-01T19:37:47.328Z,9.00
2023-04-01T19:40:21.620Z,6.80
2023-04-01T19:42:59.624Z,6.50
2023-04-01T19:45:47.179Z,5.93
2023-04-01T19:48:39.448Z,6.07
2023-04-01T19:51:13.941Z,7.23
2023-04-01T19:53:52.408Z,5.80
2023-04-01T19:56:19.675Z,6.20
2023-04-01T19:58:55.877Z,4.93
2023-04-01T20:01:44.203Z,4.50
2023-04-01T20:04:25.318Z,4.80
2023-04-01T20:06:53.338Z,6.50
2023-04-01T20:09:27.356Z,5.57
2023-04-01T20:11:58.157Z,5.87
2023-04-01T20:14:29.138Z,5.47
2023-04-01T20:17:01.348Z,5.03
2023-04-01T20:19:30.280Z,6.87
2023-04-01T20:22:02.205Z,6.10
2023-04-01T20:24:55.982Z,7.20
2023-04-01T20:27:27.144Z,5.37
2023-04-01T20:30:09.652Z,5.57
2023-04-01T20:32:48.853Z,6.47
2023-04-01T20:35:16.519Z,9.30
2023-04-01T20:37:50.997Z,8.77
2023-04-01T20:40:25.383Z,8.20
2023-04-01T20:42:52.522Z,7.23
2023-04-01T20:45:22.736Z,9.37
2023-04-01T20:47:53.030Z,6.53
2023-04-01T20:50:39.138Z,6.50
2023-04-01T20:53:17.158Z,5.60
2023-04-01T20:55:56.629Z,5.97
2023-04-01T20:58:42.069Z,6.83
2023-04-01T21:01:15.364Z,4.93
2023-04-01T21:04:01.576Z,4.63
2023-04-01T21:06:43.876Z,4.83
2023-04-01T21:09:26.545Z,4.40
2023-04-01T21:11:54.075Z,4.93
2023-04-01T21:14:36.785Z,4.00
2023-04-01T21:17:15.354Z,4.73
2023-04-01T21:19:58.280Z,5.97
2023-04-01T21:22:36.974Z,4.50
2023-04-01T21:25:23.048Z,3.93
2023-04-01T21:28:09.046Z,5.07
2023-04-01T21:30:55.013Z,3.77
2023-04-01T21:33:29.312Z,6.57
2023-04-01T21:36:12.335Z,5.23
2023-04-01T21:38:45.988Z,3.83
2023-04-01T21:41:39.456Z,4.13
2023-04-01T21:44:23.531Z,4.57
2023-04-01T21:46:57.009Z,4.60
2023-04-01T21:49:33.521Z,6.57
2023-04-01T21:52:19.352Z,4.87
2023-04-01T21:54:52.580Z,5.63
2023-04-01T21:57:19.776Z,5.33
2023-04-01T22:00:06.993Z,5.30
2023-04-01T22:02:37.020Z,6.60
2023-04-01T22:05:10.564Z,7.13
2023-04-01T22:07:40.798Z,10.63
2023-04-01T22:10:17.034Z,12.37
2023-04-01T22:12:55.954Z,6.40
2023-04-01T22:15:52.342Z,7.47
2023-04-01T22:18:23.870Z,5.57
2023-04-01T22:20:51.015Z,5.70
2023-04-01T22:23:32.041Z,6.63
2023-04-01T22:26:05.229Z,6.23
2023-04-01T22:28:53.094Z,7.50
2023-04-01T22:31:42.598Z,5.83
2023-04-01T22:34:16.261Z,6.80
2023-04-01T22:36:59.996Z,7.53
2023-04-01T22:39:39.724Z,7.03
2023-04-01T22:42:18.938Z,7.70
2023-04-01T22:45:01.328Z,8.33
2023-04-01T22:47:28.621Z,8.80
2023-04-01T22:50:00.337Z,9.13
2023-04-01T22:52:37.789Z,9.50
2023-04-01T22:55:09.684Z,7.50
2023-04-01T22:57:52.139Z,7.80
2023-04-01T23:00:20.352Z,6.93
2023-04-01T23:02:50.488Z,7.33
2023-04-01T23:05:20.170Z,5.87
2023-04-01T23:08:09.188Z,5.03
2023-04-01T23:10:53.753Z,5.80
2023-04-01T23:13:24.595Z,5.63
2023-04-01T23:15:53.480Z,6.87
2023-04-01T23:18:35.624Z,10.43
2023-04-01T23:21:13.393Z,6.83
2023-04-01T23:23:52.435Z,8.23
2023-04-01T23:26:42.002Z,6.93
2023-04-01T23:29:15.073Z,7.40
2023-04-01T23:31:43.464Z,6.50
2023-04-01T23:34:13.815Z,7.27
2023-04-01T23:36:41.212Z,6.77
2023-04-01T23:39:16.776Z,6.40
2023-04-01T23:41:44.095Z,5.87
2023-04-01T23:44:13.151Z,7.03
2023-04-01T23:46:41.587Z,12.60
2023-04-01T23:49:13.940Z,8.53
2023-04-01T23:51:48.368Z,6.17
2023-04-01T23:54:27.970Z,5.43
2023-04-01T23:56:57.391Z,6.20
2023-04-01T23:59:36.257Z,5.53
